createdAt,value
2022-10-24T00:00:52.699Z,27.6
2022-10-24T00:01:55.434Z,27.5
2022-10-24T00:02:57.944Z,27.6
2022-10-24T00:04:00.466Z,27.7
2022-10-24T00:05:03.058Z,27.7
2022-10-24T00:06:05.535Z,27.6
2022-10-24T00:07:08.002Z,27.5
2022-10-24T00:08:10.531Z,27.4
2022-10-24T00:09:12.725Z,27.8
2022-10-24T00:10:15.205Z,27.4
2022-10-24T00:11:17.666Z,27.5
2022-10-24T00:12:20.221Z,27.5
2022-10-24T00:13:23.479Z,27.7
2022-10-24T00:14:25.408Z,27.8
2022-10-24T00:15:27.871Z,27.4
2022-10-24T00:16:30.371Z,27.2
2022-10-24T00:17:32.839Z,27.4
2022-10-24T00:18:34.748Z,27.9
2022-10-24T00:19:37.215Z,28
2022-10-24T00:20:39.732Z,27.6
2022-10-24T00:21:42.033Z,27.9
2022-10-24T00:22:44.777Z,27.3
2022-10-24T00:23:48.423Z,27.8
2022-10-24T00:24:50.903Z,28.1
2022-10-24T00:25:52.814Z,27.9
2022-10-24T00:26:55.310Z,27.6
2022-10-24T00:27:57.780Z,27.8
2022-10-24T00:30:03.539Z,28.2
2022-10-24T00:31:05.734Z,28.1
2022-10-24T00:32:08.226Z,27.6
2022-10-24T00:33:10.691Z,27.6
2022-10-24T00:34:12.891Z,27.8
2022-10-24T00:35:15.365Z,27.3
2022-10-24T00:36:17.842Z,28.3
2022-10-24T00:38:22.574Z,28.1
2022-10-24T00:39:24.878Z,27.4
2022-10-24T00:40:27.046Z,27.6
2022-10-24T00:41:29.247Z,27.6
2022-10-24T00:42:31.163Z,27.8
2022-10-24T00:43:33.091Z,27.5
2022-10-24T00:44:35.269Z,28.1
2022-10-24T00:46:39.296Z,27.6
2022-10-24T00:47:41.567Z,27.7
2022-10-24T00:48:45.273Z,28.3
2022-10-24T00:49:47.738Z,28.1
2022-10-24T00:50:49.938Z,28.2
2022-10-24T00:51:52.403Z,27.7
2022-10-24T00:52:54.605Z,27.7
2022-10-24T00:55:00.394Z,28.1
2022-10-24T00:56:02.856Z,27.5
2022-10-24T00:57:05.324Z,27.4
2022-10-24T00:58:07.797Z,27.9
2022-10-24T00:59:10.011Z,27.6
2022-10-24T01:00:12.492Z,28.2
2022-10-24T01:01:15.061Z,27.8
2022-10-24T01:02:17.984Z,28.1
2022-10-24T01:03:20.211Z,28.1
2022-10-24T01:04:22.695Z,27.4
2022-10-24T01:05:24.900Z,27.8
2022-10-24T01:06:26.794Z,28.3
2022-10-24T01:07:28.693Z,27.7
2022-10-24T01:08:31.167Z,28.2
2022-10-24T01:09:33.646Z,27.9
2022-10-24T01:11:38.500Z,27.7
2022-10-24T01:12:40.117Z,27.4
2022-10-24T01:13:43.368Z,27.4
2022-10-24T01:14:45.838Z,27.8
2022-10-24T01:15:48.323Z,27.9
2022-10-24T01:16:50.647Z,27.9
2022-10-24T01:17:52.566Z,28.3
2022-10-24T01:18:54.801Z,28.2
2022-10-24T01:19:57.300Z,28.2
2022-10-24T01:20:59.771Z,28.1
2022-10-24T01:22:01.970Z,28.3
2022-10-24T01:23:04.150Z,28.1
2022-10-24T01:24:06.073Z,28.1
2022-10-24T01:25:07.713Z,27.7
2022-10-24T01:26:10.236Z,27.6
2022-10-24T01:27:12.722Z,28.1
2022-10-24T01:28:16.248Z,27.8
2022-10-24T01:29:18.727Z,27.9
2022-10-24T01:30:21.194Z,27.9
2022-10-24T01:31:23.672Z,28.3
2022-10-24T01:32:26.181Z,28.4
2022-10-24T01:33:28.363Z,27.7
2022-10-24T01:34:30.856Z,27.6
2022-10-24T01:35:33.341Z,28.3
2022-10-24T01:36:35.804Z,28.2
2022-10-24T01:37:37.987Z,27.5
2022-10-24T01:38:40.466Z,27.9
2022-10-24T01:39:42.936Z,27.7
2022-10-24T01:40:45.406Z,28.4
2022-10-24T01:41:47.664Z,27.5
2022-10-24T01:42:50.121Z,28.3
2022-10-24T01:44:55.826Z,27.7
2022-10-24T01:45:58.025Z,28.3
2022-10-24T01:47:00.214Z,27.8
2022-10-24T01:48:02.434Z,28.1
2022-10-24T01:49:04.898Z,28.1
2022-10-24T01:50:07.120Z,27.4
2022-10-24T01:51:09.316Z,27.8
2022-10-24T01:52:11.249Z,28.2
2022-10-24T01:53:14.801Z,28.3
2022-10-24T01:54:23.614Z,28
2022-10-24T01:55:25.806Z,27.9
2022-10-24T01:56:28.280Z,28
2022-10-24T01:57:30.804Z,27.8
2022-10-24T01:58:33.277Z,27.7
2022-10-24T01:59:35.746Z,28
2022-10-24T02:00:38.357Z,27.8
2022-10-24T02:01:41.488Z,28.1
2022-10-24T02:02:44.710Z,28.2
2022-10-24T02:03:48.827Z,27.7
2022-10-24T02:04:51.290Z,27.8
2022-10-24T02:05:53.783Z,27.8
2022-10-24T02:06:55.978Z,27.7
2022-10-24T02:07:58.168Z,28.1
2022-10-24T02:09:00.687Z,27.3
2022-10-24T02:10:03.376Z,27.5
2022-10-24T02:11:05.551Z,28
2022-10-24T02:12:07.761Z,27.6
2022-10-24T02:13:09.740Z,27.8
2022-10-24T02:14:11.929Z,27.8
2022-10-24T02:15:13.847Z,27.9
2022-10-24T02:16:16.022Z,28.2
2022-10-24T02:17:18.532Z,28.1
2022-10-24T02:18:21.095Z,27.9
2022-10-24T02:19:23.315Z,28
2022-10-24T02:20:25.781Z,28
2022-10-24T02:21:27.722Z,28.3
2022-10-24T02:22:29.666Z,28.1
2022-10-24T02:23:31.872Z,27.7
2022-10-24T02:24:34.064Z,28.1
2022-10-24T02:25:36.022Z,28.1
2022-10-24T02:26:38.365Z,27.7
2022-10-24T02:27:40.571Z,28
2022-10-24T02:28:44.019Z,28.1
2022-10-24T02:29:46.212Z,27.8
2022-10-24T02:30:48.683Z,27.8
2022-10-24T02:31:51.165Z,28.2
2022-10-24T02:32:53.357Z,27.8
2022-10-24T02:33:55.828Z,28.3
2022-10-24T02:34:58.317Z,27.9
2022-10-24T02:36:00.503Z,27.8
2022-10-24T02:37:02.769Z,27.8
2022-10-24T02:38:04.970Z,28
2022-10-24T02:39:07.436Z,28
2022-10-24T02:40:09.615Z,27.9
2022-10-24T02:41:11.815Z,27.9
2022-10-24T02:42:14.011Z,27.9
2022-10-24T02:43:16.395Z,27.9
2022-10-24T02:44:18.915Z,27.8
2022-10-24T02:45:20.861Z,28
2022-10-24T02:46:23.334Z,27.8
2022-10-24T02:47:25.532Z,28.2
2022-10-24T02:48:28.002Z,27.9
2022-10-24T02:49:30.480Z,28
2022-10-24T02:50:32.986Z,27.8
2022-10-24T02:51:35.174Z,27.7
2022-10-24T02:52:37.660Z,27.8
2022-10-24T02:53:39.851Z,27.7
2022-10-24T02:54:41.750Z,27.8
2022-10-24T02:55:44.226Z,27.9
2022-10-24T02:56:46.727Z,27.8
2022-10-24T02:57:49.281Z,27.9
2022-10-24T02:58:51.787Z,28.2
2022-10-24T02:59:54.072Z,27.8
2022-10-24T03:00:56.048Z,27.9
2022-10-24T03:01:58.513Z,27.9
2022-10-24T03:03:00.701Z,27.8
2022-10-24T03:04:03.188Z,27.7
2022-10-24T03:05:05.369Z,27.9
2022-10-24T03:06:07.864Z,27.8
2022-10-24T03:07:10.048Z,27.8
2022-10-24T03:08:12.563Z,27.6
2022-10-24T03:09:15.042Z,27.6
2022-10-24T03:10:17.527Z,27.6
2022-10-24T03:11:19.994Z,27.7
2022-10-24T03:12:22.195Z,27.5
2022-10-24T03:13:24.380Z,27.7
2022-10-24T03:14:26.854Z,27.7
2022-10-24T03:15:29.082Z,27.5
2022-10-24T03:16:31.006Z,27.6
2022-10-24T03:17:33.472Z,27.7
2022-10-24T03:18:35.946Z,27.5
2022-10-24T03:19:38.143Z,27.5
2022-10-24T03:20:40.371Z,27.5
2022-10-24T03:21:42.862Z,27.7
2022-10-24T03:22:45.338Z,27.7
2022-10-24T03:23:47.821Z,27.5
2022-10-24T03:24:55.550Z,27.4
2022-10-24T03:25:54.727Z,27.5
2022-10-24T03:26:56.897Z,27.5
2022-10-24T03:27:59.364Z,27.4
2022-10-24T03:29:01.532Z,27.5
2022-10-24T03:30:04.001Z,27.4
2022-10-24T03:31:06.518Z,27.3
2022-10-24T03:32:08.990Z,27.4
2022-10-24T03:33:11.465Z,27.2
2022-10-24T03:34:13.415Z,27.5
2022-10-24T03:35:15.889Z,27.4
2022-10-24T03:36:18.083Z,27.4
2022-10-24T03:37:20.371Z,27.3
2022-10-24T03:38:22.894Z,27.5
2022-10-24T03:39:25.136Z,27.5
2022-10-24T03:40:27.611Z,27.4
2022-10-24T03:41:29.506Z,27.4
2022-10-24T03:42:32.210Z,27.5
2022-10-24T03:43:35.002Z,27.4
2022-10-24T03:44:37.284Z,27.4
2022-10-24T03:45:39.505Z,27.4
2022-10-24T03:46:41.768Z,27.5
2022-10-24T03:47:44.246Z,27.4
2022-10-24T03:48:46.758Z,27.3
2022-10-24T03:49:49.054Z,27.3
2022-10-24T03:50:51.838Z,27.4
2022-10-24T03:51:54.318Z,27.4
2022-10-24T03:52:56.818Z,27.4
2022-10-24T03:53:59.012Z,27.6
2022-10-24T03:55:01.241Z,27.5
2022-10-24T03:56:03.172Z,27.4
2022-10-24T03:57:05.385Z,27.3
2022-10-24T03:58:07.582Z,27.4
2022-10-24T03:59:10.056Z,27.4
2022-10-24T04:00:12.251Z,27.3
2022-10-24T04:01:14.549Z,27.4
2022-10-24T04:02:17.798Z,27.3
2022-10-24T04:03:20.005Z,27.2
2022-10-24T04:04:21.644Z,27.4
2022-10-24T04:05:24.124Z,27.4
2022-10-24T04:06:26.719Z,27.4
2022-10-24T04:07:33.609Z,27.5
2022-10-24T04:08:35.836Z,27.3
2022-10-24T04:09:38.015Z,27.1
2022-10-24T04:10:40.233Z,27.2
2022-10-24T04:11:42.139Z,27.3
2022-10-24T04:12:44.345Z,27.2
2022-10-24T04:13:46.532Z,27.3
2022-10-24T04:14:48.728Z,27.1
2022-10-24T04:15:50.636Z,27.1
2022-10-24T04:16:52.841Z,27.4
2022-10-24T04:17:55.374Z,27.3
2022-10-24T04:18:57.860Z,27.3
2022-10-24T04:20:00.063Z,27.1
2022-10-24T04:21:02.301Z,27.3
2022-10-24T04:22:04.550Z,27.2
2022-10-24T04:23:07.049Z,27.2
2022-10-24T04:24:08.723Z,27.3
2022-10-24T04:25:10.908Z,27.2
2022-10-24T04:26:13.402Z,27.1
2022-10-24T04:27:15.597Z,27.3
2022-10-24T04:28:17.798Z,27.2
2022-10-24T04:29:19.691Z,27.1
2022-10-24T04:30:22.205Z,27.3
2022-10-24T04:31:24.680Z,27.3
2022-10-24T04:32:27.169Z,27.3
2022-10-24T04:33:29.451Z,27.2
2022-10-24T04:34:31.371Z,27.2
2022-10-24T04:35:33.305Z,27.1
2022-10-24T04:36:35.778Z,27.3
2022-10-24T04:37:38.249Z,27.1
2022-10-24T04:38:40.725Z,27.2
2022-10-24T04:39:43.246Z,27.3
2022-10-24T04:40:45.721Z,27.2
2022-10-24T04:41:48.213Z,27.3
2022-10-24T04:42:50.134Z,27.2
2022-10-24T04:43:52.614Z,27.2
2022-10-24T04:44:55.106Z,27.2
2022-10-24T04:45:57.601Z,27.2
2022-10-24T04:46:59.790Z,27.3
2022-10-24T04:48:02.256Z,27.4
2022-10-24T04:49:04.850Z,27.1
2022-10-24T04:50:07.313Z,27.1
2022-10-24T04:51:09.533Z,27.2
2022-10-24T04:52:11.506Z,27.2
2022-10-24T04:53:13.997Z,27.2
2022-10-24T04:54:16.204Z,27.2
2022-10-24T04:55:18.151Z,27.2
2022-10-24T04:56:20.621Z,27.2
2022-10-24T04:57:22.842Z,27
2022-10-24T04:58:25.313Z,27.2
2022-10-24T04:59:27.513Z,27.1
2022-10-24T05:00:29.685Z,27.1
2022-10-24T05:01:31.989Z,27.2
2022-10-24T05:02:34.738Z,27.2
2022-10-24T05:03:37.702Z,27.1
2022-10-24T05:04:40.221Z,27.3
2022-10-24T05:05:42.419Z,27.1
2022-10-24T05:06:45.088Z,27.2
2022-10-24T05:07:47.654Z,27.1
2022-10-24T05:08:49.902Z,27.2
2022-10-24T05:09:52.101Z,27
2022-10-24T05:10:54.342Z,27.1
2022-10-24T05:11:56.805Z,27.1
2022-10-24T05:12:59.342Z,27.2
2022-10-24T05:14:01.818Z,27.1
2022-10-24T05:15:03.998Z,27
2022-10-24T05:16:06.189Z,27
2022-10-24T05:17:08.384Z,27.2
2022-10-24T05:18:10.852Z,27
2022-10-24T05:19:13.159Z,27.3
2022-10-24T05:20:15.725Z,27.3
2022-10-24T05:21:17.649Z,27.2
2022-10-24T05:22:20.122Z,27.1
2022-10-24T05:23:22.591Z,27.1
2022-10-24T05:24:24.490Z,27.3
2022-10-24T05:25:26.968Z,27.2
2022-10-24T05:26:29.460Z,27
2022-10-24T05:27:31.653Z,27.1
2022-10-24T05:28:34.139Z,27.2
2022-10-24T05:29:36.977Z,27.2
2022-10-24T05:30:39.445Z,27.2
2022-10-24T05:31:41.920Z,27.2
2022-10-24T05:32:44.321Z,27.1
2022-10-24T05:33:48.358Z,27.1
2022-10-24T05:34:50.848Z,27.1
2022-10-24T05:35:53.390Z,27.2
2022-10-24T05:36:55.583Z,27.2
2022-10-24T05:37:58.076Z,27.2
2022-10-24T05:39:00.001Z,27.1
2022-10-24T05:40:02.469Z,27.1
2022-10-24T05:41:04.684Z,27.1
2022-10-24T05:42:07.202Z,27.1
2022-10-24T05:43:09.104Z,27.1
2022-10-24T05:44:11.607Z,27.1
2022-10-24T05:45:13.787Z,27.1
2022-10-24T05:46:16.267Z,27
2022-10-24T05:47:18.741Z,27.1
2022-10-24T05:48:23.221Z,27.2
2022-10-24T05:49:25.422Z,27
2022-10-24T05:50:27.377Z,27
2022-10-24T05:51:29.921Z,27
2022-10-24T05:52:31.836Z,27
2022-10-24T05:53:34.324Z,27.1
2022-10-24T05:54:42.386Z,27.1
2022-10-24T05:55:41.251Z,27.2
2022-10-24T05:56:43.447Z,27.1
2022-10-24T05:57:46.148Z,27.1
2022-10-24T05:58:49.947Z,27
2022-10-24T05:59:52.442Z,27
2022-10-24T06:00:54.933Z,27
2022-10-24T06:01:57.598Z,27.2
2022-10-24T06:03:00.487Z,27.1
2022-10-24T06:04:02.687Z,27.1
2022-10-24T06:05:07.306Z,27
2022-10-24T06:06:09.489Z,27.1
2022-10-24T06:07:12.018Z,27.2
2022-10-24T06:08:14.236Z,27.2
2022-10-24T06:09:16.705Z,27
2022-10-24T06:10:18.938Z,27.1
2022-10-24T06:12:24.703Z,27.1
2022-10-24T06:13:26.931Z,27.1
2022-10-24T06:14:32.898Z,27
2022-10-24T06:15:34.826Z,27.1
2022-10-24T06:16:36.774Z,27.3
2022-10-24T06:17:39.246Z,27.1
2022-10-24T06:18:41.735Z,27.1
2022-10-24T06:19:44.057Z,27
2022-10-24T06:20:46.564Z,27.1
2022-10-24T06:21:53.013Z,27.2
2022-10-24T06:22:55.258Z,27.1
2022-10-24T06:23:57.159Z,27.2
2022-10-24T06:24:59.361Z,27.1
2022-10-24T06:26:01.325Z,27
2022-10-24T06:27:02.974Z,27.1
2022-10-24T06:28:05.228Z,27
2022-10-24T06:29:07.668Z,27.1
2022-10-24T06:30:09.875Z,27.2
2022-10-24T06:31:12.493Z,27.1
2022-10-24T06:32:14.983Z,27.2
2022-10-24T06:33:17.185Z,27.2
2022-10-24T06:35:23.242Z,27.1
2022-10-24T06:36:26.815Z,27
2022-10-24T06:37:30.712Z,27.1
2022-10-24T06:38:33.257Z,27.2
2022-10-24T06:39:35.730Z,27.2
2022-10-24T06:40:38.201Z,27.1
2022-10-24T06:41:40.132Z,27
2022-10-24T06:42:42.610Z,27
2022-10-24T06:43:44.238Z,27.1
2022-10-24T06:44:46.805Z,27.1
2022-10-24T06:45:49.296Z,27.1
2022-10-24T06:46:52.095Z,27.2
2022-10-24T06:47:54.756Z,27
2022-10-24T06:48:58.390Z,26.9
2022-10-24T06:50:00.602Z,27.1
2022-10-24T06:51:03.101Z,27
2022-10-24T06:52:05.587Z,27
2022-10-24T06:53:08.105Z,27
2022-10-24T06:54:10.637Z,27
2022-10-24T06:55:13.743Z,27.1
2022-10-24T06:56:15.959Z,27
2022-10-24T06:57:18.433Z,27
2022-10-24T06:58:20.621Z,27.1
2022-10-24T06:59:22.794Z,27
2022-10-24T07:00:25.041Z,27
2022-10-24T07:01:28.916Z,26.9
2022-10-24T07:02:32.007Z,27
2022-10-24T07:03:34.918Z,27
2022-10-24T07:04:37.409Z,27
2022-10-24T07:05:39.620Z,27
2022-10-24T07:06:41.816Z,27.1
2022-10-24T07:07:44.499Z,27
2022-10-24T07:08:48.956Z,27.1
2022-10-24T07:09:51.512Z,27
2022-10-24T07:10:54.001Z,27
2022-10-24T07:11:56.205Z,27.1
2022-10-24T07:12:58.150Z,27
2022-10-24T07:14:01.754Z,27
2022-10-24T07:15:07.413Z,27.1
2022-10-24T07:16:09.922Z,27.1
2022-10-24T07:17:12.164Z,27
2022-10-24T07:18:14.685Z,27
2022-10-24T07:19:16.899Z,27.1
2022-10-24T07:20:19.380Z,27
2022-10-24T07:21:21.859Z,26.9
2022-10-24T07:22:24.068Z,27.1
2022-10-24T07:23:27.948Z,27
2022-10-24T07:24:30.161Z,26.9
2022-10-24T07:25:32.698Z,27.1
2022-10-24T07:26:34.640Z,26.9
2022-10-24T07:27:36.881Z,27
2022-10-24T07:28:39.072Z,27.1
2022-10-24T07:29:41.277Z,26.8
2022-10-24T07:30:43.476Z,26.9
2022-10-24T07:31:45.704Z,26.9
2022-10-24T07:32:48.173Z,26.8
2022-10-24T07:33:50.751Z,26.9
2022-10-24T07:34:52.948Z,27.1
2022-10-24T07:35:55.438Z,27
2022-10-24T07:36:57.912Z,27
2022-10-24T07:38:00.114Z,26.9
2022-10-24T07:39:02.112Z,26.8
2022-10-24T07:40:04.601Z,27
2022-10-24T07:41:07.213Z,27
2022-10-24T07:42:09.686Z,26.9
2022-10-24T07:43:12.159Z,26.9
2022-10-24T07:44:14.633Z,26.9
2022-10-24T07:45:17.113Z,26.8
2022-10-24T07:46:19.598Z,26.9
2022-10-24T07:47:22.123Z,26.9
2022-10-24T07:48:24.315Z,26.7
2022-10-24T07:49:29.017Z,26.7
2022-10-24T07:50:31.544Z,26.9
2022-10-24T07:51:34.016Z,26.9
2022-10-24T07:52:36.212Z,27
2022-10-24T07:53:38.412Z,26.9
2022-10-24T07:54:40.932Z,27
2022-10-24T07:55:42.842Z,26.8
2022-10-24T07:56:45.101Z,26.8
2022-10-24T07:57:47.885Z,26.8
2022-10-24T07:58:50.657Z,26.8
2022-10-24T07:59:52.889Z,26.8
2022-10-24T08:00:55.379Z,26.9
2022-10-24T08:01:57.988Z,26.8
2022-10-24T08:03:00.489Z,26.7
2022-10-24T08:04:02.687Z,27
2022-10-24T08:05:05.184Z,27
2022-10-24T08:06:07.384Z,26.8
2022-10-24T08:07:09.891Z,26.8
2022-10-24T08:08:24.957Z,27
2022-10-24T08:09:17.091Z,26.9
2022-10-24T08:10:19.322Z,26.8
2022-10-24T08:11:21.624Z,27
2022-10-24T08:12:24.434Z,26.9
2022-10-24T08:13:26.641Z,26.8
2022-10-24T08:14:28.839Z,26.9
2022-10-24T08:15:30.766Z,26.9
2022-10-24T08:16:33.252Z,26.9
2022-10-24T08:17:35.451Z,27
2022-10-24T08:18:38.776Z,26.8
2022-10-24T08:19:43.551Z,26.7
2022-10-24T08:20:46.817Z,27
2022-10-24T08:21:49.292Z,27
2022-10-24T08:22:51.776Z,27
2022-10-24T08:23:54.258Z,26.9
2022-10-24T08:24:56.455Z,27
2022-10-24T08:25:58.935Z,26.8
2022-10-24T08:27:01.417Z,26.7
2022-10-24T08:28:05.234Z,26.9
2022-10-24T08:29:08.695Z,27
2022-10-24T08:30:10.903Z,26.9
2022-10-24T08:31:13.373Z,26.7
2022-10-24T08:32:15.555Z,26.8
2022-10-24T08:33:19.484Z,26.8
2022-10-24T08:34:21.316Z,27
2022-10-24T08:35:23.854Z,26.8
2022-10-24T08:36:25.506Z,26.9
2022-10-24T08:37:27.540Z,26.9
2022-10-24T08:38:30.337Z,27
2022-10-24T08:39:32.050Z,26.9
2022-10-24T08:40:34.292Z,26.8
2022-10-24T08:41:36.790Z,26.9
2022-10-24T08:42:39.290Z,26.9
2022-10-24T08:43:41.996Z,27
2022-10-24T08:44:44.311Z,26.8
2022-10-24T08:45:46.533Z,27
2022-10-24T08:46:49.087Z,27
2022-10-24T08:47:51.595Z,27
2022-10-24T08:48:54.143Z,26.9
2022-10-24T08:49:55.817Z,26.8
2022-10-24T08:50:57.742Z,26.9
2022-10-24T08:52:00.285Z,27
2022-10-24T08:53:02.486Z,26.9
2022-10-24T08:54:04.697Z,26.9
2022-10-24T08:55:07.870Z,26.9
2022-10-24T08:56:14.224Z,26.8
2022-10-24T08:57:16.421Z,27
2022-10-24T08:58:18.617Z,27
2022-10-24T08:59:21.157Z,27
2022-10-24T09:00:23.676Z,27
2022-10-24T09:01:26.287Z,26.9
2022-10-24T09:02:29.593Z,26.8
2022-10-24T09:03:51.077Z,26.8
2022-10-24T09:04:37.995Z,26.8
2022-10-24T09:05:40.229Z,27
2022-10-24T09:06:41.879Z,26.9
2022-10-24T09:07:44.393Z,27
2022-10-24T09:08:48.860Z,26.9
2022-10-24T09:09:51.065Z,26.8
2022-10-24T09:10:52.742Z,26.8
2022-10-24T09:11:55.057Z,26.9
2022-10-24T09:12:57.286Z,27
2022-10-24T09:13:59.227Z,27
2022-10-24T09:15:01.796Z,26.8
2022-10-24T09:16:03.995Z,26.7
2022-10-24T09:17:06.494Z,27
2022-10-24T09:18:08.673Z,26.9
2022-10-24T09:19:10.879Z,26.9
2022-10-24T09:20:13.357Z,27
2022-10-24T09:21:15.857Z,26.8
2022-10-24T09:22:18.343Z,26.9
2022-10-24T09:23:20.869Z,26.7
2022-10-24T09:24:23.348Z,27
2022-10-24T09:25:25.850Z,26.9
2022-10-24T09:26:28.059Z,26.9
2022-10-24T09:27:30.262Z,26.9
2022-10-24T09:28:32.490Z,26.8
2022-10-24T09:29:34.982Z,27
2022-10-24T09:30:37.658Z,27.1
2022-10-24T09:31:40.137Z,26.9
2022-10-24T09:32:42.628Z,26.9
2022-10-24T09:33:44.848Z,26.9
2022-10-24T09:34:47.325Z,26.8
2022-10-24T09:35:49.808Z,26.9
2022-10-24T09:36:52.317Z,27.1
2022-10-24T09:37:55.073Z,26.9
2022-10-24T09:38:57.657Z,26.8
2022-10-24T09:40:00.224Z,26.7
2022-10-24T09:41:02.144Z,26.8
2022-10-24T09:42:04.839Z,26.9
2022-10-24T09:43:07.044Z,26.8
2022-10-24T09:44:09.549Z,26.8
2022-10-24T09:45:11.746Z,26.8
2022-10-24T09:46:14.284Z,26.7
2022-10-24T09:47:16.820Z,26.8
2022-10-24T09:48:20.148Z,27
2022-10-24T09:49:27.263Z,26.9
2022-10-24T09:50:29.163Z,26.9
2022-10-24T09:51:31.381Z,26.9
2022-10-24T09:52:33.480Z,27
2022-10-24T09:53:35.666Z,26.8
2022-10-24T09:54:37.884Z,26.9
2022-10-24T09:55:40.081Z,26.7
2022-10-24T09:56:42.281Z,26.7
2022-10-24T09:57:44.895Z,26.7
2022-10-24T09:58:49.156Z,26.8
2022-10-24T09:59:51.629Z,26.8
2022-10-24T10:00:54.124Z,26.9
2022-10-24T10:01:57.116Z,26.8
2022-10-24T10:03:00.685Z,26.9
2022-10-24T10:04:06.203Z,26.9
2022-10-24T10:05:07.611Z,26.8
2022-10-24T10:06:09.824Z,26.8
2022-10-24T10:07:11.726Z,26.8
2022-10-24T10:08:14.226Z,26.7
2022-10-24T10:09:16.749Z,26.8
2022-10-24T10:10:19.235Z,26.9
2022-10-24T10:11:21.169Z,26.7
2022-10-24T10:12:23.367Z,26.8
2022-10-24T10:13:25.554Z,26.8
2022-10-24T10:14:27.727Z,26.8
2022-10-24T10:15:29.921Z,26.7
2022-10-24T10:16:31.854Z,26.8
2022-10-24T10:17:34.104Z,26.7
2022-10-24T10:18:36.592Z,26.8
2022-10-24T10:19:38.792Z,26.7
2022-10-24T10:20:41.270Z,26.8
2022-10-24T10:21:43.516Z,26.8
2022-10-24T10:22:45.180Z,26.8
2022-10-24T10:23:47.442Z,26.8
2022-10-24T10:24:49.638Z,26.9
2022-10-24T10:25:52.154Z,26.9
2022-10-24T10:26:54.354Z,26.9
2022-10-24T10:27:58.799Z,26.8
2022-10-24T10:29:01.818Z,26.6
2022-10-24T10:30:03.991Z,26.7
2022-10-24T10:31:06.480Z,26.7
2022-10-24T10:32:08.674Z,26.9
2022-10-24T10:33:11.207Z,26.7
2022-10-24T10:34:14.972Z,26.8
2022-10-24T10:35:18.667Z,26.9
2022-10-24T10:36:21.138Z,26.8
2022-10-24T10:37:23.614Z,26.9
2022-10-24T10:38:25.817Z,26.8
2022-10-24T10:39:27.777Z,26.9
2022-10-24T10:40:30.253Z,26.8
2022-10-24T10:41:32.756Z,26.9
2022-10-24T10:42:34.677Z,26.8
2022-10-24T10:43:37.153Z,26.7
2022-10-24T10:44:39.347Z,26.7
2022-10-24T10:45:41.819Z,26.7
2022-10-24T10:46:44.031Z,26.8
2022-10-24T10:47:46.239Z,26.8
2022-10-24T10:48:48.253Z,26.8
2022-10-24T10:49:50.746Z,26.9
2022-10-24T10:50:52.958Z,26.9
2022-10-24T10:51:55.499Z,27
2022-10-24T10:52:57.713Z,26.9
2022-10-24T10:53:59.659Z,26.6
2022-10-24T10:55:02.169Z,26.9
2022-10-24T10:56:04.638Z,26.8
2022-10-24T10:57:07.140Z,26.7
2022-10-24T10:58:12.991Z,26.9
2022-10-24T10:59:14.607Z,26.8
2022-10-24T11:00:16.541Z,26.6
2022-10-24T11:01:18.596Z,26.6
2022-10-24T11:02:21.561Z,26.8
2022-10-24T11:03:24.938Z,26.7
2022-10-24T11:04:27.461Z,26.7
2022-10-24T11:05:29.957Z,26.8
2022-10-24T11:06:32.428Z,26.7
2022-10-24T11:07:34.898Z,26.9
2022-10-24T11:08:37.107Z,26.9
2022-10-24T11:09:39.587Z,26.8
2022-10-24T11:10:42.093Z,26.8
2022-10-24T11:11:44.295Z,26.7
2022-10-24T11:12:46.273Z,26.7
2022-10-24T11:13:48.481Z,26.7
2022-10-24T11:14:50.965Z,26.8
2022-10-24T11:15:53.444Z,26.6
2022-10-24T11:16:55.969Z,26.7
2022-10-24T11:17:58.160Z,26.9
2022-10-24T11:19:00.062Z,26.8
2022-10-24T11:20:02.824Z,26.6
2022-10-24T11:21:05.049Z,26.5
2022-10-24T11:22:07.528Z,26.7
2022-10-24T11:23:10.201Z,26.7
2022-10-24T11:24:13.441Z,26.7
2022-10-24T11:25:16.393Z,26.7
2022-10-24T11:26:18.892Z,26.7
2022-10-24T11:27:21.368Z,26.7
2022-10-24T11:28:23.292Z,26.9
2022-10-24T11:29:25.524Z,26.7
2022-10-24T11:30:27.431Z,26.8
2022-10-24T11:31:29.905Z,26.8
2022-10-24T11:32:32.379Z,26.9
2022-10-24T11:33:34.575Z,26.8
2022-10-24T11:34:36.781Z,26.8
2022-10-24T11:35:39.329Z,26.8
2022-10-24T11:36:41.558Z,26.7
2022-10-24T11:37:44.033Z,26.7
2022-10-24T11:38:46.250Z,26.8
2022-10-24T11:39:48.173Z,26.7
2022-10-24T11:40:52.600Z,26.7
2022-10-24T11:41:56.186Z,26.7
2022-10-24T11:42:59.059Z,26.7
2022-10-24T11:44:01.732Z,26.8
2022-10-24T11:45:04.237Z,26.6
2022-10-24T11:46:06.458Z,26.6
2022-10-24T11:47:08.934Z,26.8
2022-10-24T11:48:11.412Z,26.7
2022-10-24T11:49:13.652Z,26.8
2022-10-24T11:50:16.131Z,26.6
2022-10-24T11:51:21.604Z,26.7
2022-10-24T11:52:24.136Z,26.5
2022-10-24T11:53:26.042Z,26.7
2022-10-24T11:54:28.523Z,26.5
2022-10-24T11:55:30.151Z,26.7
2022-10-24T11:56:32.377Z,26.8
2022-10-24T11:57:34.911Z,26.6
2022-10-24T11:58:37.111Z,26.8
2022-10-24T11:59:40.929Z,26.7
2022-10-24T12:00:44.322Z,26.8
2022-10-24T12:01:46.689Z,26.8
2022-10-24T12:02:48.335Z,26.8
2022-10-24T12:03:50.959Z,26.9
2022-10-24T12:04:52.886Z,26.7
2022-10-24T12:05:55.368Z,26.7
2022-10-24T12:06:57.870Z,26.7
2022-10-24T12:08:00.417Z,26.8
2022-10-24T12:09:02.629Z,26.9
2022-10-24T12:10:05.126Z,26.8
2022-10-24T12:11:07.333Z,26.8
2022-10-24T12:12:09.544Z,26.8
2022-10-24T12:13:11.772Z,26.8
2022-10-24T12:14:13.684Z,26.8
2022-10-24T12:15:16.610Z,26.9
2022-10-24T12:16:18.806Z,26.6
2022-10-24T12:17:21.289Z,26.9
2022-10-24T12:18:23.766Z,26.7
2022-10-24T12:19:26.236Z,26.7
2022-10-24T12:20:28.705Z,26.7
2022-10-24T12:21:30.911Z,26.7
2022-10-24T12:22:33.400Z,26.8
2022-10-24T12:23:35.745Z,26.8
2022-10-24T12:24:37.942Z,26.7
2022-10-24T12:25:42.337Z,26.7
2022-10-24T12:26:45.433Z,26.7
2022-10-24T12:27:47.607Z,26.8
2022-10-24T12:28:49.862Z,26.8
2022-10-24T12:29:52.243Z,26.6
2022-10-24T12:30:54.751Z,26.8
2022-10-24T12:31:56.407Z,26.7
2022-10-24T12:32:58.893Z,26.6
2022-10-24T12:34:00.809Z,26.6
2022-10-24T12:35:25.585Z,26.8
2022-10-24T12:36:07.993Z,26.6
2022-10-24T12:37:10.200Z,26.8
2022-10-24T12:38:13.032Z,26.8
2022-10-24T12:39:15.292Z,26.6
2022-10-24T12:40:18.195Z,26.8
2022-10-24T12:41:20.407Z,26.6
2022-10-24T12:42:22.887Z,26.6
2022-10-24T12:43:25.101Z,26.8
2022-10-24T12:44:27.611Z,26.7
2022-10-24T12:45:30.092Z,26.8
2022-10-24T12:46:32.322Z,26.6
2022-10-24T12:47:34.817Z,26.6
2022-10-24T12:48:37.048Z,26.6
2022-10-24T12:49:38.974Z,26.7
2022-10-24T12:50:41.180Z,26.6
2022-10-24T12:51:43.692Z,26.7
2022-10-24T12:52:46.532Z,26.8
2022-10-24T12:53:50.070Z,26.7
2022-10-24T12:54:52.675Z,26.8
2022-10-24T12:55:54.865Z,26.7
2022-10-24T12:56:57.361Z,26.7
2022-10-24T12:57:59.849Z,26.6
2022-10-24T12:59:01.788Z,26.8
2022-10-24T13:00:04.014Z,26.6
2022-10-24T13:01:06.050Z,26.8
2022-10-24T13:02:09.147Z,26.8
2022-10-24T13:03:12.324Z,26.8
2022-10-24T13:04:14.530Z,26.6
2022-10-24T13:05:17.026Z,26.6
2022-10-24T13:06:19.503Z,26.5
2022-10-24T13:07:22.012Z,26.6
2022-10-24T13:08:24.212Z,26.7
2022-10-24T13:09:26.462Z,26.7
2022-10-24T13:10:29.001Z,26.7
2022-10-24T13:11:31.223Z,26.7
2022-10-24T13:12:33.704Z,26.7
2022-10-24T13:13:36.182Z,26.6
2022-10-24T13:14:38.666Z,26.7
2022-10-24T13:15:40.923Z,26.7
2022-10-24T13:16:43.395Z,26.7
2022-10-24T13:17:46.142Z,26.7
2022-10-24T13:18:49.829Z,26.7
2022-10-24T13:19:52.029Z,26.7
2022-10-24T13:20:54.246Z,26.7
2022-10-24T13:21:56.435Z,26.6
2022-10-24T13:22:58.646Z,26.7
2022-10-24T13:24:00.821Z,26.6
2022-10-24T13:25:03.032Z,26.6
2022-10-24T13:26:05.345Z,26.8
2022-10-24T13:27:11.721Z,26.7
2022-10-24T13:28:12.543Z,26.7
2022-10-24T13:29:15.058Z,26.7
2022-10-24T13:30:16.981Z,26.8
2022-10-24T13:31:18.944Z,26.5
2022-10-24T13:32:21.145Z,26.8
2022-10-24T13:33:23.135Z,26.8
2022-10-24T13:34:25.337Z,26.7
2022-10-24T13:35:27.517Z,26.6
2022-10-24T13:36:29.888Z,26.8
2022-10-24T13:37:32.361Z,26.7
2022-10-24T13:38:34.060Z,26.7
2022-10-24T13:39:38.628Z,26.8
2022-10-24T13:40:41.585Z,26.7
2022-10-24T13:41:44.053Z,26.9
2022-10-24T13:42:46.221Z,26.8
2022-10-24T13:43:50.401Z,26.8
2022-10-24T13:44:52.389Z,26.9
2022-10-24T13:45:54.586Z,26.6
2022-10-24T13:46:56.813Z,26.9
2022-10-24T13:47:59.315Z,26.8
2022-10-24T13:49:01.816Z,26.7
2022-10-24T13:50:03.991Z,26.7
2022-10-24T13:51:06.711Z,26.7
2022-10-24T13:52:09.191Z,26.7
2022-10-24T13:53:11.663Z,26.9
2022-10-24T13:54:14.292Z,26.7
2022-10-24T13:55:16.777Z,26.8
2022-10-24T13:56:18.696Z,26.7
2022-10-24T13:57:21.257Z,26.7
2022-10-24T13:58:23.472Z,26.8
2022-10-24T13:59:25.722Z,26.8
2022-10-24T14:00:28.194Z,26.8
2022-10-24T14:01:30.833Z,26.7
2022-10-24T14:02:33.766Z,26.6
2022-10-24T14:03:36.968Z,26.7
2022-10-24T14:04:43.058Z,26.6
2022-10-24T14:05:44.992Z,26.7
2022-10-24T14:06:47.489Z,26.7